sensor_id;sensor_type;location;lat;lon;timestamp;temperature;humidity
13796;SHT30;40911;51.552;9.874;2022-10-03T00:01:41;9.92;94.68
13796;SHT30;40911;51.552;9.874;2022-10-03T00:04:16;9.93;94.59
13796;SHT30;40911;51.552;9.874;2022-10-03T00:06:47;9.93;94.54
13796;SHT30;40911;51.552;9.874;2022-10-03T00:09:27;9.97;94.42
13796;SHT30;40911;51.552;9.874;2022-10-03T00:12:01;9.96;94.52
13796;SHT30;40911;51.552;9.874;2022-10-03T00:14:33;9.93;94.47
13796;SHT30;40911;51.552;9.874;2022-10-03T00:17:03;9.99;94.55
13796;SHT30;40911;51.552;9.874;2022-10-03T00:19:35;9.99;94.38
13796;SHT30;40911;51.552;9.874;2022-10-03T00:22:09;9.96;94.51
13796;SHT30;40911;51.552;9.874;2022-10-03T00:24:47;10.05;94.30
13796;SHT30;40911;51.552;9.874;2022-10-03T00:27:17;10.02;94.30
13796;SHT30;40911;51.552;9.874;2022-10-03T00:29:59;10.03;94.59
13796;SHT30;40911;51.552;9.874;2022-10-03T00:32:31;10.06;94.47
13796;SHT30;40911;51.552;9.874;2022-10-03T00:35:09;10.03;94.66
13796;SHT30;40911;51.552;9.874;2022-10-03T00:37:36;10.07;94.55
13796;SHT30;40911;51.552;9.874;2022-10-03T00:43:25;10.07;94.63
13796;SHT30;40911;51.552;9.874;2022-10-03T00:46:06;10.06;94.54
13796;SHT30;40911;51.552;9.874;2022-10-03T00:49:09;10.07;94.56
13796;SHT30;40911;51.552;9.874;2022-10-03T00:51:49;10.07;94.56
13796;SHT30;40911;51.552;9.874;2022-10-03T00:54:51;10.03;94.90
13796;SHT30;40911;51.552;9.874;2022-10-03T01:00:19;10.05;94.90
13796;SHT30;40911;51.552;9.874;2022-10-03T01:02:53;10.03;94.82
13796;SHT30;40911;51.552;9.874;2022-10-03T01:05:30;10.02;94.95
13796;SHT30;40911;51.552;9.874;2022-10-03T01:08:17;10.05;94.97
13796;SHT30;40911;51.552;9.874;2022-10-03T01:10:49;10.03;95.08
13796;SHT30;40911;51.552;9.874;2022-10-03T01:13:30;10.05;95.05
13796;SHT30;40911;51.552;9.874;2022-10-03T01:16:07;10.05;95.10
13796;SHT30;40911;51.552;9.874;2022-10-03T01:18:42;10.03;95.10
13796;SHT30;40911;51.552;9.874;2022-10-03T01:21:16;10.03;95.33
13796;SHT30;40911;51.552;9.874;2022-10-03T01:24:01;10.07;95.26
13796;SHT30;40911;51.552;9.874;2022-10-03T01:26:39;10.00;95.24
13796;SHT30;40911;51.552;9.874;2022-10-03T01:29:09;9.99;95.41
13796;SHT30;40911;51.552;9.874;2022-10-03T01:31:53;9.97;95.62
13796;SHT30;40911;51.552;9.874;2022-10-03T01:34:22;10.02;95.54
13796;SHT30;40911;51.552;9.874;2022-10-03T01:36:53;10.07;95.51
13796;SHT30;40911;51.552;9.874;2022-10-03T01:39:26;10.03;95.46
13796;SHT30;40911;51.552;9.874;2022-10-03T01:41:56;10.03;95.32
13796;SHT30;40911;51.552;9.874;2022-10-03T01:44:25;10.06;95.40
13796;SHT30;40911;51.552;9.874;2022-10-03T01:46:54;10.03;95.48
13796;SHT30;40911;51.552;9.874;2022-10-03T01:49:20;10.02;95.59
13796;SHT30;40911;51.552;9.874;2022-10-03T01:51:51;9.90;95.70
13796;SHT30;40911;51.552;9.874;2022-10-03T01:54:19;10.03;95.57
13796;SHT30;40911;51.552;9.874;2022-10-03T01:56:52;9.96;95.68
13796;SHT30;40911;51.552;9.874;2022-10-03T01:59:24;10.02;95.68
13796;SHT30;40911;51.552;9.874;2022-10-03T02:01:54;10.02;95.66
13796;SHT30;40911;51.552;9.874;2022-10-03T02:04:34;10.09;95.53
13796;SHT30;40911;51.552;9.874;2022-10-03T02:07:05;10.14;95.59
13796;SHT30;40911;51.552;9.874;2022-10-03T02:09:33;10.23;95.33
13796;SHT30;40911;51.552;9.874;2022-10-03T02:12:06;10.26;95.45
13796;SHT30;40911;51.552;9.874;2022-10-03T02:14:38;10.37;95.41
13796;SHT30;40911;51.552;9.874;2022-10-03T02:17:03;10.37;95.21
13796;SHT30;40911;51.552;9.874;2022-10-03T02:19:33;10.41;95.15
13796;SHT30;40911;51.552;9.874;2022-10-03T02:21:58;10.44;95.19
13796;SHT30;40911;51.552;9.874;2022-10-03T02:24:37;10.44;95.16
13796;SHT30;40911;51.552;9.874;2022-10-03T02:30:09;10.45;95.26
13796;SHT30;40911;51.552;9.874;2022-10-03T02:35:50;10.48;95.28
13796;SHT30;40911;51.552;9.874;2022-10-03T02:38:55;10.51;95.37
13796;SHT30;40911;51.552;9.874;2022-10-03T02:41:40;10.54;95.30
13796;SHT30;40911;51.552;9.874;2022-10-03T02:47:29;10.58;95.15
13796;SHT30;40911;51.552;9.874;2022-10-03T02:50:23;10.60;95.15
13796;SHT30;40911;51.552;9.874;2022-10-03T02:56:13;10.61;95.27
13796;SHT30;40911;51.552;9.874;2022-10-03T02:58:52;10.60;95.41
13796;SHT30;40911;51.552;9.874;2022-10-03T03:01:48;10.61;95.29
13796;SHT30;40911;51.552;9.874;2022-10-03T03:07:30;10.60;95.38
13796;SHT30;40911;51.552;9.874;2022-10-03T03:10:27;10.62;95.42
13796;SHT30;40911;51.552;9.874;2022-10-03T03:13:14;10.65;95.27
13796;SHT30;40911;51.552;9.874;2022-10-03T03:18:54;10.69;95.23
13796;SHT30;40911;51.552;9.874;2022-10-03T03:21:29;10.67;95.30
13796;SHT30;40911;51.552;9.874;2022-10-03T03:24:23;10.67;95.39
13796;SHT30;40911;51.552;9.874;2022-10-03T03:27:15;10.65;95.47
13796;SHT30;40911;51.552;9.874;2022-10-03T03:29:44;10.61;95.48
13796;SHT30;40911;51.552;9.874;2022-10-03T03:32:14;10.60;95.53
13796;SHT30;40911;51.552;9.874;2022-10-03T03:34:45;10.55;95.57
13796;SHT30;40911;51.552;9.874;2022-10-03T03:37:19;10.58;95.62
13796;SHT30;40911;51.552;9.874;2022-10-03T03:39:59;10.55;95.73
13796;SHT30;40911;51.552;9.874;2022-10-03T03:42:45;10.57;95.63
13796;SHT30;40911;51.552;9.874;2022-10-03T03:45:27;10.55;95.63
13796;SHT30;40911;51.552;9.874;2022-10-03T03:48:03;10.52;95.68
13796;SHT30;40911;51.552;9.874;2022-10-03T03:50:41;10.49;95.73
13796;SHT30;40911;51.552;9.874;2022-10-03T03:53:28;10.47;95.86
13796;SHT30;40911;51.552;9.874;2022-10-03T03:56:06;10.42;95.89
13796;SHT30;40911;51.552;9.874;2022-10-03T03:58:34;10.40;95.87
13796;SHT30;40911;51.552;9.874;2022-10-03T04:01:17;10.37;95.95
13796;SHT30;40911;51.552;9.874;2022-10-03T04:03:54;10.37;95.95
13796;SHT30;40911;51.552;9.874;2022-10-03T04:06:34;10.34;95.99
13796;SHT30;40911;51.552;9.874;2022-10-03T04:09:19;10.30;96.01
13796;SHT30;40911;51.552;9.874;2022-10-03T04:11:54;10.28;96.15
13796;SHT30;40911;51.552;9.874;2022-10-03T04:14:33;10.28;96.20
13796;SHT30;40911;51.552;9.874;2022-10-03T04:17:12;10.30;96.25
13796;SHT30;40911;51.552;9.874;2022-10-03T04:20:04;10.31;96.22
13796;SHT30;40911;51.552;9.874;2022-10-03T04:22:45;10.30;96.28
13796;SHT30;40911;51.552;9.874;2022-10-03T04:25:31;10.27;96.33
13796;SHT30;40911;51.552;9.874;2022-10-03T04:28:12;10.21;96.48
13796;SHT30;40911;51.552;9.874;2022-10-03T04:30:49;10.26;96.40
13796;SHT30;40911;51.552;9.874;2022-10-03T04:33:24;10.26;96.38
13796;SHT30;40911;51.552;9.874;2022-10-03T04:38:49;10.18;96.38
13796;SHT30;40911;51.552;9.874;2022-10-03T04:41:25;10.16;96.45
13796;SHT30;40911;51.552;9.874;2022-10-03T04:43:58;10.18;96.41
13796;SHT30;40911;51.552;9.874;2022-10-03T04:46:26;10.17;96.44
13796;SHT30;40911;51.552;9.874;2022-10-03T04:48:56;10.16;96.43
13796;SHT30;40911;51.552;9.874;2022-10-03T04:51:39;10.16;96.39
13796;SHT30;40911;51.552;9.874;2022-10-03T04:54:11;10.12;96.41
13796;SHT30;40911;51.552;9.874;2022-10-03T04:56:43;10.09;96.44
13796;SHT30;40911;51.552;9.874;2022-10-03T05:02:02;10.09;96.56
13796;SHT30;40911;51.552;9.874;2022-10-03T05:04:29;10.05;96.60
13796;SHT30;40911;51.552;9.874;2022-10-03T05:07:00;10.07;96.54
13796;SHT30;40911;51.552;9.874;2022-10-03T05:09:31;10.02;96.55
13796;SHT30;40911;51.552;9.874;2022-10-03T05:12:01;10.02;96.58
13796;SHT30;40911;51.552;9.874;2022-10-03T05:14:41;10.06;96.56
13796;SHT30;40911;51.552;9.874;2022-10-03T05:17:14;10.07;96.56
13796;SHT30;40911;51.552;9.874;2022-10-03T05:19:52;10.10;96.42
13796;SHT30;40911;51.552;9.874;2022-10-03T05:22:23;10.07;96.48
13796;SHT30;40911;51.552;9.874;2022-10-03T05:24:56;10.05;96.53
13796;SHT30;40911;51.552;9.874;2022-10-03T05:27:23;10.03;96.51
13796;SHT30;40911;51.552;9.874;2022-10-03T05:29:54;10.02;96.45
13796;SHT30;40911;51.552;9.874;2022-10-03T05:32:26;10.05;96.46
13796;SHT30;40911;51.552;9.874;2022-10-03T05:35:02;10.00;96.51
13796;SHT30;40911;51.552;9.874;2022-10-03T05:37:41;9.99;96.53
13796;SHT30;40911;51.552;9.874;2022-10-03T05:40:13;9.99;96.55
13796;SHT30;40911;51.552;9.874;2022-10-03T05:42:49;10.02;96.45
13796;SHT30;40911;51.552;9.874;2022-10-03T05:45:27;9.99;96.45
13796;SHT30;40911;51.552;9.874;2022-10-03T05:47:52;10.00;96.45
13796;SHT30;40911;51.552;9.874;2022-10-03T05:53:15;10.02;96.46
13796;SHT30;40911;51.552;9.874;2022-10-03T05:55:47;10.02;96.44
13796;SHT30;40911;51.552;9.874;2022-10-03T05:58:54;10.05;96.44
13796;SHT30;40911;51.552;9.874;2022-10-03T06:01:47;10.03;96.42
13796;SHT30;40911;51.552;9.874;2022-10-03T06:04:35;9.99;96.47
13796;SHT30;40911;51.552;9.874;2022-10-03T06:07:16;10.05;96.49
13796;SHT30;40911;51.552;9.874;2022-10-03T06:12:36;10.06;96.51
13796;SHT30;40911;51.552;9.874;2022-10-03T06:15:16;10.07;96.49
13796;SHT30;40911;51.552;9.874;2022-10-03T06:17:56;10.12;96.49
13796;SHT30;40911;51.552;9.874;2022-10-03T06:23:50;10.23;96.26
13796;SHT30;40911;51.552;9.874;2022-10-03T06:26:54;10.36;96.17
13796;SHT30;40911;51.552;9.874;2022-10-03T06:33:06;10.58;95.78
13796;SHT30;40911;51.552;9.874;2022-10-03T06:42:10;10.78;95.67
13796;SHT30;40911;51.552;9.874;2022-10-03T06:44:49;10.78;95.59
13796;SHT30;40911;51.552;9.874;2022-10-03T06:47:26;10.78;95.59
13796;SHT30;40911;51.552;9.874;2022-10-03T06:50:15;10.81;95.57
13796;SHT30;40911;51.552;9.874;2022-10-03T06:53:12;10.89;95.54
13796;SHT30;40911;51.552;9.874;2022-10-03T06:56:11;10.92;95.41
13796;SHT30;40911;51.552;9.874;2022-10-03T06:59:03;10.96;95.34
13796;SHT30;40911;51.552;9.874;2022-10-03T07:04:56;10.93;95.33
13796;SHT30;40911;51.552;9.874;2022-10-03T07:08:00;10.96;95.15
13796;SHT30;40911;51.552;9.874;2022-10-03T07:10:37;10.99;95.08
13796;SHT30;40911;51.552;9.874;2022-10-03T07:13:19;10.97;95.03
13796;SHT30;40911;51.552;9.874;2022-10-03T07:15:55;11.02;95.07
13796;SHT30;40911;51.552;9.874;2022-10-03T07:24:32;11.23;94.61
13796;SHT30;40911;51.552;9.874;2022-10-03T07:27:11;11.26;94.63
13796;SHT30;40911;51.552;9.874;2022-10-03T07:33:06;11.20;94.76
13796;SHT30;40911;51.552;9.874;2022-10-03T07:35:44;11.22;94.61
13796;SHT30;40911;51.552;9.874;2022-10-03T07:41:45;11.34;94.59
13796;SHT30;40911;51.552;9.874;2022-10-03T07:47:27;11.41;94.32
13796;SHT30;40911;51.552;9.874;2022-10-03T07:50:15;11.44;94.33
13796;SHT30;40911;51.552;9.874;2022-10-03T07:53:03;11.48;94.14
13796;SHT30;40911;51.552;9.874;2022-10-03T07:55:48;11.61;94.09
13796;SHT30;40911;51.552;9.874;2022-10-03T07:58:24;11.57;94.09
13796;SHT30;40911;51.552;9.874;2022-10-03T08:01:05;11.61;93.96
13796;SHT30;40911;51.552;9.874;2022-10-03T08:06:33;11.67;93.70
13796;SHT30;40911;51.552;9.874;2022-10-03T08:09:32;11.71;93.53
13796;SHT30;40911;51.552;9.874;2022-10-03T08:12:20;11.78;93.33
13796;SHT30;40911;51.552;9.874;2022-10-03T08:14:55;11.78;93.19
13796;SHT30;40911;51.552;9.874;2022-10-03T08:17:58;11.83;93.01
13796;SHT30;40911;51.552;9.874;2022-10-03T08:24:01;11.92;93.23
13796;SHT30;40911;51.552;9.874;2022-10-03T08:29:28;11.98;92.56
13796;SHT30;40911;51.552;9.874;2022-10-03T08:38:18;12.10;92.40
13796;SHT30;40911;51.552;9.874;2022-10-03T08:41:03;12.09;91.74
13796;SHT30;40911;51.552;9.874;2022-10-03T08:44:13;12.23;91.80
13796;SHT30;40911;51.552;9.874;2022-10-03T08:46:59;12.17;91.67
13796;SHT30;40911;51.552;9.874;2022-10-03T08:52:30;12.20;91.56
13796;SHT30;40911;51.552;9.874;2022-10-03T08:58:09;12.30;91.71
13796;SHT30;40911;51.552;9.874;2022-10-03T09:00:48;12.37;91.62
13796;SHT30;40911;51.552;9.874;2022-10-03T09:03:49;12.40;90.90
13796;SHT30;40911;51.552;9.874;2022-10-03T09:06:49;12.51;91.00
13796;SHT30;40911;51.552;9.874;2022-10-03T09:12:36;12.65;90.67
13796;SHT30;40911;51.552;9.874;2022-10-03T09:15:12;12.65;90.96
13796;SHT30;40911;51.552;9.874;2022-10-03T09:18:08;12.61;90.54
13796;SHT30;40911;51.552;9.874;2022-10-03T09:21:20;12.67;90.67
13796;SHT30;40911;51.552;9.874;2022-10-03T09:24:16;12.65;90.26
13796;SHT30;40911;51.552;9.874;2022-10-03T09:26:57;12.68;90.37
13796;SHT30;40911;51.552;9.874;2022-10-03T09:29:40;12.75;90.44
13796;SHT30;40911;51.552;9.874;2022-10-03T09:32:44;12.95;90.62
13796;SHT30;40911;51.552;9.874;2022-10-03T09:35:38;12.89;90.21
13796;SHT30;40911;51.552;9.874;2022-10-03T09:41:31;13.13;89.85
13796;SHT30;40911;51.552;9.874;2022-10-03T09:53:12;12.99;89.04
13796;SHT30;40911;51.552;9.874;2022-10-03T09:55:49;12.95;89.36
13796;SHT30;40911;51.552;9.874;2022-10-03T09:58:37;13.18;89.29
13796;SHT30;40911;51.552;9.874;2022-10-03T10:01:15;13.67;88.09
13796;SHT30;40911;51.552;9.874;2022-10-03T10:04:14;13.75;87.17
13796;SHT30;40911;51.552;9.874;2022-10-03T10:06:56;14.34;86.13
13796;SHT30;40911;51.552;9.874;2022-10-03T10:09:47;13.94;85.97
13796;SHT30;40911;51.552;9.874;2022-10-03T10:12:48;14.37;84.85
13796;SHT30;40911;51.552;9.874;2022-10-03T10:24:32;15.25;82.75
13796;SHT30;40911;51.552;9.874;2022-10-03T10:30:21;15.09;81.78
13796;SHT30;40911;51.552;9.874;2022-10-03T10:33:23;15.69;81.73
13796;SHT30;40911;51.552;9.874;2022-10-03T10:39:35;15.60;80.60
13796;SHT30;40911;51.552;9.874;2022-10-03T10:42:36;15.91;80.65
13796;SHT30;40911;51.552;9.874;2022-10-03T10:45:37;15.85;80.91
13796;SHT30;40911;51.552;9.874;2022-10-03T10:54:49;15.69;80.53
13796;SHT30;40911;51.552;9.874;2022-10-03T10:57:33;15.70;80.27
13796;SHT30;40911;51.552;9.874;2022-10-03T11:00:16;15.94;79.09
13796;SHT30;40911;51.552;9.874;2022-10-03T11:08:49;16.50;77.02
13796;SHT30;40911;51.552;9.874;2022-10-03T11:24:01;16.74;76.89
13796;SHT30;40911;51.552;9.874;2022-10-03T11:30:08;15.59;76.39
13796;SHT30;40911;51.552;9.874;2022-10-03T11:35:50;15.75;76.64
13796;SHT30;40911;51.552;9.874;2022-10-03T11:38:22;15.74;77.23
13796;SHT30;40911;51.552;9.874;2022-10-03T11:40:55;15.94;77.01
13796;SHT30;40911;51.552;9.874;2022-10-03T11:46:24;16.15;76.38
13796;SHT30;40911;51.552;9.874;2022-10-03T11:48:53;16.36;75.95
13796;SHT30;40911;51.552;9.874;2022-10-03T11:51:23;16.57;75.65
13796;SHT30;40911;51.552;9.874;2022-10-03T11:53:50;16.19;75.24
13796;SHT30;40911;51.552;9.874;2022-10-03T11:56:35;16.19;75.27
13796;SHT30;40911;51.552;9.874;2022-10-03T11:59:31;16.35;75.42
13796;SHT30;40911;51.552;9.874;2022-10-03T12:02:06;16.26;75.54
13796;SHT30;40911;51.552;9.874;2022-10-03T12:04:43;16.40;73.79
13796;SHT30;40911;51.552;9.874;2022-10-03T12:07:14;16.77;73.44
13796;SHT30;40911;51.552;9.874;2022-10-03T12:10:02;16.49;72.58
13796;SHT30;40911;51.552;9.874;2022-10-03T12:12:36;16.90;72.80
13796;SHT30;40911;51.552;9.874;2022-10-03T12:15:11;17.31;73.12
13796;SHT30;40911;51.552;9.874;2022-10-03T12:17:42;17.28;71.98
13796;SHT30;40911;51.552;9.874;2022-10-03T12:20:16;16.97;72.89
13796;SHT30;40911;51.552;9.874;2022-10-03T12:22:42;16.50;73.41
13796;SHT30;40911;51.552;9.874;2022-10-03T12:25:17;16.74;73.33
13796;SHT30;40911;51.552;9.874;2022-10-03T12:27:48;16.22;72.28
13796;SHT30;40911;51.552;9.874;2022-10-03T12:30:13;16.22;72.23
13796;SHT30;40911;51.552;9.874;2022-10-03T12:32:44;16.36;72.18
13796;SHT30;40911;51.552;9.874;2022-10-03T12:35:25;16.12;71.63
13796;SHT30;40911;51.552;9.874;2022-10-03T12:38:04;16.14;72.52
13796;SHT30;40911;51.552;9.874;2022-10-03T12:40:31;15.98;74.02
13796;SHT30;40911;51.552;9.874;2022-10-03T12:43:03;15.84;74.40
13796;SHT30;40911;51.552;9.874;2022-10-03T12:45:33;16.29;74.97
13796;SHT30;40911;51.552;9.874;2022-10-03T12:48:06;16.67;74.05
13796;SHT30;40911;51.552;9.874;2022-10-03T12:50:44;16.63;73.92
13796;SHT30;40911;51.552;9.874;2022-10-03T12:53:32;16.35;73.94
13796;SHT30;40911;51.552;9.874;2022-10-03T12:56:03;16.02;75.14
13796;SHT30;40911;51.552;9.874;2022-10-03T12:58:32;15.80;74.69
13796;SHT30;40911;51.552;9.874;2022-10-03T13:01:03;15.74;75.15
13796;SHT30;40911;51.552;9.874;2022-10-03T13:03:37;15.77;74.82
13796;SHT30;40911;51.552;9.874;2022-10-03T13:06:19;15.78;74.90
13796;SHT30;40911;51.552;9.874;2022-10-03T13:08:53;16.01;75.36
13796;SHT30;40911;51.552;9.874;2022-10-03T13:11:41;16.01;75.07
13796;SHT30;40911;51.552;9.874;2022-10-03T13:14:28;15.95;75.17
13796;SHT30;40911;51.552;9.874;2022-10-03T13:16:59;16.14;74.00
13796;SHT30;40911;51.552;9.874;2022-10-03T13:19:29;16.45;73.74
13796;SHT30;40911;51.552;9.874;2022-10-03T13:22:00;16.29;73.56
13796;SHT30;40911;51.552;9.874;2022-10-03T13:24:32;15.99;74.69
13796;SHT30;40911;51.552;9.874;2022-10-03T13:27:04;16.39;74.67
13796;SHT30;40911;51.552;9.874;2022-10-03T13:29:32;16.02;73.77
13796;SHT30;40911;51.552;9.874;2022-10-03T13:32:09;16.33;74.40
13796;SHT30;40911;51.552;9.874;2022-10-03T13:34:47;16.26;74.29
13796;SHT30;40911;51.552;9.874;2022-10-03T13:37:22;16.25;74.03
13796;SHT30;40911;51.552;9.874;2022-10-03T13:39:47;16.26;74.00
13796;SHT30;40911;51.552;9.874;2022-10-03T13:42:16;16.49;73.65
13796;SHT30;40911;51.552;9.874;2022-10-03T13:44:41;16.53;73.81
13796;SHT30;40911;51.552;9.874;2022-10-03T13:47:18;16.49;73.60
13796;SHT30;40911;51.552;9.874;2022-10-03T13:49:50;16.70;73.07
13796;SHT30;40911;51.552;9.874;2022-10-03T13:52:17;16.42;72.88
13796;SHT30;40911;51.552;9.874;2022-10-03T13:55:01;16.57;72.81
13796;SHT30;40911;51.552;9.874;2022-10-03T13:57:33;16.74;71.89
13796;SHT30;40911;51.552;9.874;2022-10-03T14:00:00;16.42;72.25
13796;SHT30;40911;51.552;9.874;2022-10-03T14:02:42;16.56;72.91
13796;SHT30;40911;51.552;9.874;2022-10-03T14:05:21;16.68;72.48
13796;SHT30;40911;51.552;9.874;2022-10-03T14:07:52;16.71;72.91
13796;SHT30;40911;51.552;9.874;2022-10-03T14:13:16;17.05;71.65
13796;SHT30;40911;51.552;9.874;2022-10-03T14:15:49;16.70;72.29
13796;SHT30;40911;51.552;9.874;2022-10-03T14:18:32;16.53;72.19
13796;SHT30;40911;51.552;9.874;2022-10-03T14:21:28;16.74;72.05
13796;SHT30;40911;51.552;9.874;2022-10-03T14:24:01;16.56;72.37
13796;SHT30;40911;51.552;9.874;2022-10-03T14:26:30;16.76;72.12
13796;SHT30;40911;51.552;9.874;2022-10-03T14:28:57;17.01;71.80
13796;SHT30;40911;51.552;9.874;2022-10-03T14:31:24;16.88;71.00
13796;SHT30;40911;51.552;9.874;2022-10-03T14:33:56;16.64;71.67
13796;SHT30;40911;51.552;9.874;2022-10-03T14:36:31;16.78;71.48
13796;SHT30;40911;51.552;9.874;2022-10-03T14:39:08;16.66;72.39
13796;SHT30;40911;51.552;9.874;2022-10-03T14:41:45;16.80;72.03
13796;SHT30;40911;51.552;9.874;2022-10-03T14:44:12;16.47;72.69
13796;SHT30;40911;51.552;9.874;2022-10-03T14:46:40;16.19;72.37
13796;SHT30;40911;51.552;9.874;2022-10-03T14:49:04;16.18;73.25
13796;SHT30;40911;51.552;9.874;2022-10-03T14:51:32;16.02;73.89
13796;SHT30;40911;51.552;9.874;2022-10-03T14:53:58;16.32;73.35
13796;SHT30;40911;51.552;9.874;2022-10-03T14:56:22;16.18;73.50
13796;SHT30;40911;51.552;9.874;2022-10-03T14:58:47;16.25;74.08
13796;SHT30;40911;51.552;9.874;2022-10-03T15:01:14;16.04;74.38
13796;SHT30;40911;51.552;9.874;2022-10-03T15:03:39;15.92;74.80
13796;SHT30;40911;51.552;9.874;2022-10-03T15:06:20;15.82;74.55
13796;SHT30;40911;51.552;9.874;2022-10-03T15:08:46;15.81;74.60
13796;SHT30;40911;51.552;9.874;2022-10-03T15:11:10;16.02;75.14
13796;SHT30;40911;51.552;9.874;2022-10-03T15:13:36;16.55;73.71
13796;SHT30;40911;51.552;9.874;2022-10-03T15:16:00;15.84;75.05
13796;SHT30;40911;51.552;9.874;2022-10-03T15:18:23;15.85;75.62
13796;SHT30;40911;51.552;9.874;2022-10-03T15:20:46;15.81;75.27
13796;SHT30;40911;51.552;9.874;2022-10-03T15:23:17;15.67;75.36
13796;SHT30;40911;51.552;9.874;2022-10-03T15:25:42;15.49;75.25
13796;SHT30;40911;51.552;9.874;2022-10-03T15:28:05;15.52;75.98
13796;SHT30;40911;51.552;9.874;2022-10-03T15:30:31;15.42;76.60
13796;SHT30;40911;51.552;9.874;2022-10-03T15:33:02;15.35;76.56
13796;SHT30;40911;51.552;9.874;2022-10-03T15:35:28;15.32;76.76
13796;SHT30;40911;51.552;9.874;2022-10-03T15:37:52;15.13;76.71
13796;SHT30;40911;51.552;9.874;2022-10-03T15:40:22;15.05;76.94
13796;SHT30;40911;51.552;9.874;2022-10-03T15:42:48;15.04;77.48
13796;SHT30;40911;51.552;9.874;2022-10-03T15:45:18;15.01;77.41
13796;SHT30;40911;51.552;9.874;2022-10-03T15:47:44;14.83;77.90
13796;SHT30;40911;51.552;9.874;2022-10-03T15:50:17;14.81;77.93
13796;SHT30;40911;51.552;9.874;2022-10-03T15:52:42;14.75;78.41
13796;SHT30;40911;51.552;9.874;2022-10-03T15:55:06;14.70;78.63
13796;SHT30;40911;51.552;9.874;2022-10-03T15:57:31;14.73;78.66
13796;SHT30;40911;51.552;9.874;2022-10-03T15:59:57;14.50;78.94
13796;SHT30;40911;51.552;9.874;2022-10-03T16:02:24;14.41;79.27
13796;SHT30;40911;51.552;9.874;2022-10-03T16:04:51;14.29;79.94
13796;SHT30;40911;51.552;9.874;2022-10-03T16:07:22;14.29;79.85
13796;SHT30;40911;51.552;9.874;2022-10-03T16:09:49;14.20;80.11
13796;SHT30;40911;51.552;9.874;2022-10-03T16:12:34;14.09;80.41
13796;SHT30;40911;51.552;9.874;2022-10-03T16:15:11;14.01;80.88
13796;SHT30;40911;51.552;9.874;2022-10-03T16:17:42;13.92;80.92
13796;SHT30;40911;51.552;9.874;2022-10-03T16:20:15;13.94;81.09
13796;SHT30;40911;51.552;9.874;2022-10-03T16:22:41;13.88;81.36
13796;SHT30;40911;51.552;9.874;2022-10-03T16:25:07;13.85;81.37
13796;SHT30;40911;51.552;9.874;2022-10-03T16:27:32;13.78;81.44
13796;SHT30;40911;51.552;9.874;2022-10-03T16:30:16;13.70;81.85
13796;SHT30;40911;51.552;9.874;2022-10-03T16:32:46;13.58;81.96
13796;SHT30;40911;51.552;9.874;2022-10-03T16:35:19;13.62;81.98
13796;SHT30;40911;51.552;9.874;2022-10-03T16:37:45;13.55;82.26
13796;SHT30;40911;51.552;9.874;2022-10-03T16:40:18;13.41;82.47
13796;SHT30;40911;51.552;9.874;2022-10-03T16:42:40;13.39;82.87
13796;SHT30;40911;51.552;9.874;2022-10-03T16:45:12;13.34;83.19
13796;SHT30;40911;51.552;9.874;2022-10-03T16:47:40;13.33;83.17
13796;SHT30;40911;51.552;9.874;2022-10-03T16:50:03;13.24;83.40
13796;SHT30;40911;51.552;9.874;2022-10-03T16:52:46;13.22;83.62
13796;SHT30;40911;51.552;9.874;2022-10-03T16:55:14;13.15;83.98
13796;SHT30;40911;51.552;9.874;2022-10-03T16:57:42;13.11;84.18
13796;SHT30;40911;51.552;9.874;2022-10-03T17:00:13;13.09;84.27
13796;SHT30;40911;51.552;9.874;2022-10-03T17:02:36;13.01;84.69
13796;SHT30;40911;51.552;9.874;2022-10-03T17:05:03;13.01;84.71
13796;SHT30;40911;51.552;9.874;2022-10-03T17:07:29;12.99;84.73
13796;SHT30;40911;51.552;9.874;2022-10-03T17:09:51;12.93;84.86
13796;SHT30;40911;51.552;9.874;2022-10-03T17:12:17;12.96;84.97
13796;SHT30;40911;51.552;9.874;2022-10-03T17:14:40;12.79;85.47
13796;SHT30;40911;51.552;9.874;2022-10-03T17:17:06;12.85;85.11
13796;SHT30;40911;51.552;9.874;2022-10-03T17:19:34;12.88;85.09
13796;SHT30;40911;51.552;9.874;2022-10-03T17:22:06;12.84;85.23
13796;SHT30;40911;51.552;9.874;2022-10-03T17:24:37;12.81;85.22
13796;SHT30;40911;51.552;9.874;2022-10-03T17:27:00;12.68;85.77
13796;SHT30;40911;51.552;9.874;2022-10-03T17:29:29;12.71;85.42
13796;SHT30;40911;51.552;9.874;2022-10-03T17:31:56;12.65;85.98
13796;SHT30;40911;51.552;9.874;2022-10-03T17:34:21;12.65;85.77
13796;SHT30;40911;51.552;9.874;2022-10-03T17:37:12;12.65;85.70
13796;SHT30;40911;51.552;9.874;2022-10-03T17:39:44;12.60;85.89
13796;SHT30;40911;51.552;9.874;2022-10-03T17:42:17;12.58;85.89
13796;SHT30;40911;51.552;9.874;2022-10-03T17:44:53;12.53;86.04
13796;SHT30;40911;51.552;9.874;2022-10-03T17:47:19;12.51;86.18
13796;SHT30;40911;51.552;9.874;2022-10-03T17:49:49;12.44;86.65
13796;SHT30;40911;51.552;9.874;2022-10-03T17:52:18;12.46;86.51
13796;SHT30;40911;51.552;9.874;2022-10-03T17:54:43;12.41;86.75
13796;SHT30;40911;51.552;9.874;2022-10-03T17:57:12;12.38;86.92
13796;SHT30;40911;51.552;9.874;2022-10-03T17:59:42;12.30;86.92
13796;SHT30;40911;51.552;9.874;2022-10-03T18:02:16;12.25;87.14
13796;SHT30;40911;51.552;9.874;2022-10-03T18:04:41;12.33;86.87
13796;SHT30;40911;51.552;9.874;2022-10-03T18:07:09;12.29;87.14
13796;SHT30;40911;51.552;9.874;2022-10-03T18:09:34;12.13;87.68
13796;SHT30;40911;51.552;9.874;2022-10-03T18:12:19;12.15;87.46
13796;SHT30;40911;51.552;9.874;2022-10-03T18:14:59;12.19;87.19
13796;SHT30;40911;51.552;9.874;2022-10-03T18:17:32;12.15;87.76
13796;SHT30;40911;51.552;9.874;2022-10-03T18:20:04;12.13;87.66
13796;SHT30;40911;51.552;9.874;2022-10-03T18:22:34;12.10;87.71
13796;SHT30;40911;51.552;9.874;2022-10-03T18:25:08;12.02;88.11
13796;SHT30;40911;51.552;9.874;2022-10-03T18:28:05;11.89;88.47
13796;SHT30;40911;51.552;9.874;2022-10-03T18:30:33;11.90;88.47
13796;SHT30;40911;51.552;9.874;2022-10-03T18:32:55;11.88;88.48
13796;SHT30;40911;51.552;9.874;2022-10-03T18:35:20;11.86;88.74
13796;SHT30;40911;51.552;9.874;2022-10-03T18:37:53;11.86;88.28
13796;SHT30;40911;51.552;9.874;2022-10-03T18:40:18;11.79;88.50
13796;SHT30;40911;51.552;9.874;2022-10-03T18:42:44;11.86;88.53
13796;SHT30;40911;51.552;9.874;2022-10-03T18:45:17;11.83;88.65
13796;SHT30;40911;51.552;9.874;2022-10-03T18:47:46;11.82;88.74
13796;SHT30;40911;51.552;9.874;2022-10-03T18:50:17;11.79;88.65
13796;SHT30;40911;51.552;9.874;2022-10-03T18:52:44;11.82;88.68
13796;SHT30;40911;51.552;9.874;2022-10-03T18:55:17;11.78;88.69
13796;SHT30;40911;51.552;9.874;2022-10-03T18:57:46;11.74;88.79
13796;SHT30;40911;51.552;9.874;2022-10-03T19:00:15;11.72;88.78
13796;SHT30;40911;51.552;9.874;2022-10-03T19:02:41;11.64;89.22
13796;SHT30;40911;51.552;9.874;2022-10-03T19:05:10;11.50;89.70